Observations for Trim Market St
| Time | AQI | Temp °C | Hum % | Pres Pa | CO μg/m³ | H₂S μg/m³ | NO μg/m³ | NO₂ μg/m³ | O₃ μg/m³ | SO₂ μg/m³ | PM1 μg/m³ | PM2.5 μg/m³ | PM10 μg/m³ |
|---|---|---|---|---|---|---|---|---|---|---|---|---|---|
| Wednesday 8 July 2026 | |||||||||||||
| 02:16 | 1 | 18.1 | 75 | 41,241 | 0 | 0 | 0 | 3 | 9.65 | 0 | 0 | 1.4 | 3.33 |
| 02:15 | 1 | 18.1 | 74 | 41,336 | 0 | 0 | 0 | 3.21 | 10.47 | 0 | 0 | 1.4 | 3.33 |
| 02:14 | 1 | 18.1 | 74 | 41,462 | 0 | 0 | 0 | 2.51 | 10.44 | 0 | 0 | 0.92 | 2.73 |
| 02:13 | 1 | 18.1 | 74 | 41,556 | 0 | 0 | 0 | 3.81 | 11.06 | 0 | 0 | 1.4 | 3.33 |
| 02:12 | 1 | 18.1 | 74 | 41,749 | 0 | 0 | 0 | 3.71 | 10.44 | 0 | 0 | 0.92 | 2.73 |
| 02:11 | 1 | 18.1 | 74 | 41,861 | 0 | 0 | 0 | 2.82 | 9.94 | 0 | 0 | 1.41 | 3.33 |
| 02:10 | 1 | 18.2 | 74 | 41,875 | 0 | 0 | 0.4 | 3.69 | 9.74 | 0 | 0 | 1.41 | 4.53 |
| 02:09 | 1 | 18.2 | 74 | 41,804 | 0 | 0 | 0 | 2.5 | 15.63 | 0 | 0.71 | 1.41 | 3.32 |
| 02:04 | 1 | 18.2 | 74 | 41,408 | 0 | 0 | 0 | 3.09 | 9.36 | 0 | 0 | 0.93 | 2.73 |
| 02:01 | 1 | 18.3 | 74 | 41,026 | 0 | 0 | 0 | 3.65 | 8.68 | 0 | 0 | 0.92 | 2.73 |
| 02:00 | 1 | 18.3 | 74 | 41,055 | 0 | 0 | 0 | 2.95 | 11.54 | 0 | 0.71 | 1.88 | 3.93 |
| 01:55 | 1 | 18.4 | 74 | 41,737 | 0 | 0 | 0 | 3.05 | 12.21 | 0 | 0 | 0.93 | 2.72 |
| 01:51 | 1 | 18.4 | 74 | 41,765 | 0 | 0 | 0 | 4.16 | 11.51 | 0 | 0 | 0.94 | 2.72 |
| 01:50 | 1 | 18.4 | 74 | 41,856 | 0 | 0 | 0 | 3.76 | 10.22 | 0 | 0 | 1.42 | 3.32 |
| 01:49 | 1 | 18.4 | 74 | 41,883 | 0 | 0 | 0 | 4.87 | 11.66 | 0 | 0 | 1.42 | 3.31 |
| 01:46 | 1 | 18.5 | 74 | 41,858 | 0 | 0 | 0 | 4.35 | 14.82 | 0 | 0 | 0.94 | 2.71 |
| 01:45 | 1 | 18.5 | 74 | 42,109 | 0 | 0 | 0 | 4.96 | 8.78 | 0 | 0 | 1.42 | 3.31 |
| 01:44 | 1 | 18.5 | 74 | 42,427 | 0 | 0 | 0 | 5.46 | 14.65 | 0 | 0 | 0.94 | 2.71 |
| 01:43 | 1 | 18.5 | 74 | 42,688 | 0 | 0 | 0 | 3.56 | 10.65 | 0 | 0 | 1.9 | 4.52 |
| 01:42 | 1 | 18.5 | 74 | 42,852 | 0 | 0 | 0 | 4.77 | 10.56 | 0 | 0 | 1.91 | 3.91 |